Terminal Aerodrome Forecast
Issued by NWS

Current Version | Previous Version | Text Only | Print | Product List | Glossary On
Versions: 1 2 3 4 5 6 7 8 9 10 11 12 13 14 15 16 17 18
000
FTUS41 KPBZ 260500 RRA
TAFFKL
TAF
KFKL 260541Z 2606/2706 06008KT 2SM -SN BR OVC015
      TEMPO 2606/2609 1/2SM SN OVC003
     FM260900 05007KT 2SM -SN OVC008
     FM262000 07006KT 3SM -SHSN OVC010
      AMD LTD TO CLD VIS AND WIND=

USA.gov is the U.S. government's official web portal to all federal, state and local government web resources and services.